createdAt,value
2019-04-21T00:00:25.997Z,16.17
2019-04-21T00:02:58.896Z,16.17
2019-04-21T00:05:49.924Z,15.90
2019-04-21T00:08:27.258Z,16.63
2019-04-21T00:10:47.971Z,15.90
2019-04-21T00:13:12.354Z,17.00
2019-04-21T00:15:38.690Z,16.87
2019-04-21T00:18:21.202Z,16.87
2019-04-21T00:20:56.207Z,16.23
2019-04-21T00:23:42.102Z,15.47
2019-04-21T00:26:03.035Z,15.50
2019-04-21T00:28:52.813Z,16.03
2019-04-21T00:31:12.605Z,16.37
2019-04-21T00:33:32.451Z,15.77
2019-04-21T00:36:05.612Z,14.57
2019-04-21T00:39:03.128Z,14.10
2019-04-21T00:41:25.104Z,13.80
2019-04-21T00:43:44.779Z,14.20
2019-04-21T00:46:11.972Z,13.53
2019-04-21T00:48:54.030Z,13.33
2019-04-21T00:51:41.998Z,13.73
2019-04-21T00:54:05.759Z,13.47
2019-04-21T00:56:34.359Z,12.93
2019-04-21T00:59:05.725Z,13.40
2019-04-21T01:01:31.235Z,13.93
2019-04-21T01:04:04.433Z,13.03
2019-04-21T01:06:42.127Z,14.40
2019-04-21T01:09:09.337Z,12.67
2019-04-21T01:11:47.355Z,12.20
2019-04-21T01:14:12.054Z,11.77
2019-04-21T01:16:45.892Z,12.23
2019-04-21T01:19:13.945Z,12.17
2019-04-21T01:21:24.764Z,12.40
2019-04-21T01:23:55.739Z,12.93
2019-04-21T01:26:40.828Z,11.50
2019-04-21T01:29:14.461Z,11.23
2019-04-21T01:31:48.493Z,10.93
2019-04-21T01:34:20.530Z,10.17
2019-04-21T01:36:51.442Z,10.27
2019-04-21T01:39:27.197Z,9.30
2019-04-21T01:41:57.595Z,9.80
2019-04-21T01:44:34.436Z,10.60
2019-04-21T01:46:56.372Z,11.57
2019-04-21T01:49:21.883Z,9.53
2019-04-21T01:52:10.818Z,11.27
2019-04-21T01:54:48.242Z,10.80
2019-04-21T01:57:22.915Z,10.83
2019-04-21T01:59:50.258Z,10.47
2019-04-21T02:02:32.544Z,9.80
2019-04-21T02:05:03.187Z,9.07
2019-04-21T02:07:34.521Z,10.90
2019-04-21T02:10:05.218Z,9.73
2019-04-21T02:12:33.394Z,10.10
2019-04-21T02:15:11.493Z,9.90
2019-04-21T02:17:35.710Z,10.07
2019-04-21T02:20:00.584Z,11.20
2019-04-21T02:22:57.693Z,10.37
2019-04-21T02:25:28.118Z,9.97
2019-04-21T02:27:43.767Z,9.97
2019-04-21T02:30:24.769Z,10.60
2019-04-21T02:35:33.399Z,10.53
2019-04-21T02:40:30.044Z,11.00
2019-04-21T02:45:29.767Z,10.43
2019-04-21T02:50:33.999Z,10.57
2019-04-21T02:53:05.509Z,10.87
2019-04-21T02:55:30.429Z,11.43
2019-04-21T02:58:06.205Z,11.17
2019-04-21T03:00:57.220Z,12.57
2019-04-21T03:06:16.808Z,11.50
2019-04-21T03:08:54.380Z,11.53
2019-04-21T03:11:11.941Z,11.80
2019-04-21T03:16:22.929Z,12.90
2019-04-21T03:18:57.150Z,12.83
2019-04-21T03:21:20.721Z,12.80
2019-04-21T03:23:54.910Z,12.77
2019-04-21T03:28:54.515Z,13.97
2019-04-21T03:37:00.599Z,14.13
2019-04-21T03:38:58.443Z,14.13
2019-04-21T03:46:47.967Z,13.27
2019-04-21T03:49:11.941Z,13.13
2019-04-21T03:59:03.820Z,13.90
2019-04-21T04:04:53.019Z,14.57
2019-04-21T04:07:44.036Z,15.33
2019-04-21T04:12:38.095Z,14.47
2019-04-21T04:15:24.398Z,16.63
2019-04-21T04:17:32.944Z,15.33
2019-04-21T04:20:16.398Z,16.43
2019-04-21T04:25:15.538Z,14.53
2019-04-21T04:30:31.299Z,14.73
2019-04-21T04:32:56.645Z,14.93
2019-04-21T04:38:08.624Z,14.03
2019-04-21T04:45:53.670Z,18.07
2019-04-21T04:48:20.212Z,16.13
2019-04-21T04:50:53.190Z,17.27
2019-04-21T04:53:31.008Z,16.40
2019-04-21T04:55:58.924Z,17.53
2019-04-21T04:58:29.761Z,16.93
2019-04-21T05:01:06.171Z,14.90
2019-04-21T05:03:44.520Z,14.77
2019-04-21T05:09:04.208Z,12.57
2019-04-21T05:14:02.886Z,12.00
2019-04-21T05:21:40.539Z,11.03
2019-04-21T05:23:52.519Z,10.37
2019-04-21T05:26:14.326Z,10.30
2019-04-21T05:28:49.778Z,10.70
2019-04-21T05:32:04.614Z,10.43
2019-04-21T05:34:31.921Z,10.37
2019-04-21T05:37:25.746Z,9.97
2019-04-21T05:40:03.122Z,8.80
2019-04-21T05:42:36.781Z,10.43
2019-04-21T05:45:19.551Z,9.10
2019-04-21T05:48:06.072Z,9.73
2019-04-21T05:50:26.507Z,9.07
2019-04-21T05:52:55.940Z,9.67
2019-04-21T05:55:40.604Z,9.77
2019-04-21T05:58:02.680Z,9.80
2019-04-21T06:03:17.615Z,10.10
2019-04-21T06:05:53.315Z,9.20
2019-04-21T06:08:13.240Z,8.80
2019-04-21T06:13:22.198Z,10.33
2019-04-21T06:15:50.292Z,9.03
2019-04-21T06:18:20.105Z,10.20
2019-04-21T06:20:48.773Z,8.60
2019-04-21T06:23:20.339Z,8.63
2019-04-21T06:26:18.023Z,10.83
2019-04-21T06:28:28.729Z,8.40
2019-04-21T06:31:05.472Z,9.80
2019-04-21T06:33:32.193Z,9.00
2019-04-21T06:39:01.945Z,9.27
2019-04-21T06:41:27.820Z,8.67
2019-04-21T06:46:33.433Z,9.70
2019-04-21T06:51:27.452Z,9.67
2019-04-21T06:56:36.332Z,9.23
2019-04-21T06:59:01.434Z,8.93
2019-04-21T07:01:36.363Z,9.57
2019-04-21T07:04:13.194Z,9.77
2019-04-21T07:06:35.594Z,9.60
2019-04-21T07:09:15.975Z,10.23
2019-04-21T07:11:36.812Z,9.63
2019-04-21T07:14:27.268Z,9.73
2019-04-21T07:16:48.067Z,10.17
2019-04-21T07:19:21.832Z,9.07
2019-04-21T07:21:49.315Z,9.23
2019-04-21T07:24:21.726Z,8.60
2019-04-21T07:26:51.575Z,8.40
2019-04-21T07:29:25.878Z,8.97
2019-04-21T07:34:32.235Z,8.43
2019-04-21T07:36:54.905Z,7.97
2019-04-21T07:39:16.846Z,7.40
2019-04-21T07:41:49.663Z,6.90
2019-04-21T07:44:24.361Z,8.50
2019-04-21T07:46:53.357Z,8.00
2019-04-21T07:49:46.615Z,7.70
2019-04-21T07:52:33.514Z,7.20
2019-04-21T07:55:06.242Z,7.43
2019-04-21T07:57:27.693Z,7.40
2019-04-21T08:02:29.377Z,6.00
2019-04-21T08:05:11.001Z,5.77
2019-04-21T08:07:41.759Z,5.30
2019-04-21T08:10:04.273Z,5.10
2019-04-21T08:12:30.502Z,5.70
2019-04-21T08:15:15.746Z,5.70
2019-04-21T08:17:36.623Z,7.90
2019-04-21T08:20:09.222Z,4.70
2019-04-21T08:22:46.850Z,4.80
2019-04-21T08:25:13.871Z,5.27
2019-04-21T08:27:47.757Z,6.17
2019-04-21T08:30:11.559Z,9.57
2019-04-21T08:32:51.531Z,7.60
2019-04-21T08:37:50.964Z,5.67
2019-04-21T08:40:28.246Z,5.60
2019-04-21T08:42:50.801Z,4.83
2019-04-21T08:47:52.555Z,4.67
2019-04-21T08:50:27.960Z,5.43
2019-04-21T08:55:54.292Z,5.27
2019-04-21T08:58:44.633Z,4.63
2019-04-21T09:01:24.197Z,4.77
2019-04-21T09:04:15.833Z,4.37
2019-04-21T09:06:59.178Z,4.20
2019-04-21T09:09:21.015Z,4.77
2019-04-21T09:11:49.875Z,4.57
2019-04-21T09:14:21.096Z,5.13
2019-04-21T09:16:47.505Z,4.80
2019-04-21T09:19:20.296Z,4.90
2019-04-21T09:21:50.498Z,4.73
2019-04-21T09:24:24.190Z,4.90
2019-04-21T09:26:55.667Z,5.03
2019-04-21T09:29:17.445Z,5.40
2019-04-21T09:31:41.301Z,4.77
2019-04-21T09:34:08.944Z,5.03
2019-04-21T09:36:45.952Z,5.27
2019-04-21T09:39:18.061Z,5.13
2019-04-21T09:41:44.938Z,4.80
2019-04-21T09:44:22.056Z,4.77
2019-04-21T09:46:50.582Z,4.77
2019-04-21T09:49:22.556Z,5.40
2019-04-21T09:51:48.417Z,5.00
2019-04-21T09:54:24.821Z,4.40
2019-04-21T09:56:55.999Z,5.20
2019-04-21T09:59:28.087Z,5.00
2019-04-21T10:02:00.238Z,4.40
2019-04-21T10:04:23.203Z,4.43
2019-04-21T10:06:52.684Z,5.23
2019-04-21T10:09:22.265Z,4.73
2019-04-21T10:11:52.715Z,4.50
2019-04-21T10:14:22.279Z,4.27
2019-04-21T10:17:00.329Z,4.83
2019-04-21T10:19:39.779Z,3.93
2019-04-21T10:22:10.582Z,4.30
2019-04-21T10:24:40.565Z,4.37
2019-04-21T10:27:12.739Z,4.83
2019-04-21T10:29:44.586Z,4.20
2019-04-21T10:32:13.409Z,4.43
2019-04-21T10:34:43.361Z,4.20
2019-04-21T10:37:13.354Z,4.40
2019-04-21T10:39:42.917Z,4.93
2019-04-21T10:42:13.187Z,4.43
2019-04-21T10:44:43.219Z,4.30
2019-04-21T10:47:14.363Z,4.50
2019-04-21T10:49:44.805Z,4.93
2019-04-21T10:52:22.884Z,4.33
2019-04-21T10:55:11.273Z,4.40
2019-04-21T10:57:26.600Z,5.03
2019-04-21T10:59:58.181Z,4.53
2019-04-21T11:02:36.866Z,4.13
2019-04-21T11:05:06.971Z,4.60
2019-04-21T11:08:02.484Z,4.47
2019-04-21T11:10:22.177Z,4.43
2019-04-21T11:12:52.651Z,4.43
2019-04-21T11:15:23.337Z,4.60
2019-04-21T11:17:54.503Z,4.57
2019-04-21T11:20:24.748Z,5.03
2019-04-21T11:22:55.517Z,4.50
2019-04-21T11:25:26.259Z,4.63
2019-04-21T11:27:56.151Z,4.00
2019-04-21T11:30:25.770Z,4.10
2019-04-21T11:32:55.367Z,3.93
2019-04-21T11:35:25.506Z,4.00
2019-04-21T11:38:06.183Z,4.03
2019-04-21T11:40:27.707Z,4.10
2019-04-21T11:42:57.708Z,4.27
2019-04-21T11:45:30.912Z,4.70
2019-04-21T11:48:06.499Z,4.60
2019-04-21T11:50:37.104Z,4.63
2019-04-21T11:53:07.081Z,4.30
2019-04-21T11:55:41.695Z,4.40
2019-04-21T11:58:09.957Z,5.60
2019-04-21T12:00:39.894Z,4.70
2019-04-21T12:03:12.023Z,4.47
2019-04-21T12:05:41.453Z,4.63
2019-04-21T12:08:23.134Z,4.97
2019-04-21T12:10:43.145Z,4.03
2019-04-21T12:13:14.067Z,6.40
2019-04-21T12:15:45.068Z,4.20
2019-04-21T12:18:15.544Z,5.10
2019-04-21T12:20:45.213Z,4.23
2019-04-21T12:23:14.650Z,4.40
2019-04-21T12:25:47.251Z,5.40
2019-04-21T12:28:17.405Z,5.07
2019-04-21T12:30:49.672Z,4.30
2019-04-21T12:33:29.867Z,4.87
2019-04-21T12:35:59.976Z,4.83
2019-04-21T12:38:38.762Z,4.40
2019-04-21T12:41:00.683Z,4.13
2019-04-21T12:43:30.681Z,4.33
2019-04-21T12:46:00.151Z,4.50
2019-04-21T12:48:29.846Z,4.17
2019-04-21T12:50:59.821Z,4.40
2019-04-21T12:53:29.798Z,4.20
2019-04-21T12:56:00.028Z,4.97
2019-04-21T12:58:31.040Z,5.23
2019-04-21T13:01:00.908Z,4.50
2019-04-21T13:03:32.052Z,4.60
2019-04-21T13:06:01.803Z,4.47
2019-04-21T13:08:43.599Z,4.03
2019-04-21T13:11:02.584Z,4.20
2019-04-21T13:13:32.227Z,4.50
2019-04-21T13:16:02.970Z,4.03
2019-04-21T13:18:33.237Z,4.60
2019-04-21T13:21:04.257Z,4.70
2019-04-21T13:23:34.899Z,4.10
2019-04-21T13:26:06.129Z,4.33
2019-04-21T13:28:35.915Z,4.50
2019-04-21T13:31:06.495Z,4.27
2019-04-21T13:33:36.133Z,4.30
2019-04-21T13:36:05.636Z,4.30
2019-04-21T13:38:42.667Z,4.40
2019-04-21T13:41:27.323Z,3.93
2019-04-21T13:43:43.296Z,4.57
2019-04-21T13:46:12.945Z,4.23
2019-04-21T13:48:42.633Z,4.17
2019-04-21T13:51:13.409Z,4.83
2019-04-21T13:53:43.901Z,4.47
2019-04-21T13:56:14.322Z,4.67
2019-04-21T13:58:44.301Z,4.03
2019-04-21T14:01:13.973Z,4.13
2019-04-21T14:03:44.074Z,4.17
2019-04-21T14:06:14.153Z,4.40
2019-04-21T14:08:46.629Z,4.60
2019-04-21T14:11:17.544Z,4.10
2019-04-21T14:13:48.261Z,4.50
2019-04-21T14:16:18.219Z,4.03
2019-04-21T14:18:47.880Z,4.20
2019-04-21T14:21:17.316Z,4.30
2019-04-21T14:23:49.296Z,5.03
2019-04-21T14:26:18.380Z,4.70
2019-04-21T14:28:49.177Z,4.57
2019-04-21T14:31:20.006Z,4.13
2019-04-21T14:33:50.022Z,4.63
2019-04-21T14:36:21.005Z,3.97
2019-04-21T14:38:52.338Z,4.30
2019-04-21T14:41:24.115Z,4.07
2019-04-21T14:43:55.049Z,4.70
2019-04-21T14:46:47.035Z,4.77
2019-04-21T14:49:21.653Z,4.83
2019-04-21T14:52:08.686Z,5.30
2019-04-21T14:54:58.658Z,4.27
2019-04-21T14:57:29.489Z,5.13
2019-04-21T15:00:00.605Z,5.10
2019-04-21T15:02:31.819Z,4.80
2019-04-21T15:05:02.198Z,4.80
2019-04-21T15:07:33.076Z,4.20
2019-04-21T15:10:11.547Z,4.07
2019-04-21T15:12:34.213Z,4.70
2019-04-21T15:15:03.616Z,4.63
2019-04-21T15:17:33.733Z,4.43
2019-04-21T15:20:17.641Z,4.87
2019-04-21T15:22:48.303Z,5.00
2019-04-21T15:25:18.365Z,4.70
2019-04-21T15:27:48.760Z,5.10
2019-04-21T15:30:18.729Z,4.20
2019-04-21T15:32:48.600Z,4.07
2019-04-21T15:35:19.535Z,4.57
2019-04-21T15:37:49.858Z,4.50
2019-04-21T15:40:31.677Z,4.60
2019-04-21T15:42:52.678Z,4.67
2019-04-21T15:45:22.418Z,4.97
2019-04-21T15:47:51.973Z,4.30
2019-04-21T15:50:23.144Z,4.07
2019-04-21T15:52:53.911Z,4.20
2019-04-21T15:55:41.346Z,4.33
2019-04-21T15:58:30.434Z,4.73
2019-04-21T16:01:10.310Z,4.30
2019-04-21T16:03:40.677Z,4.07
2019-04-21T16:06:11.616Z,4.87
2019-04-21T16:08:41.113Z,4.53
2019-04-21T16:11:11.369Z,4.80
2019-04-21T16:13:41.692Z,4.60
2019-04-21T16:16:12.600Z,4.60
2019-04-21T16:18:42.642Z,4.50
2019-04-21T16:21:13.717Z,5.70
2019-04-21T16:23:46.636Z,6.73
2019-04-21T16:26:17.038Z,9.03
2019-04-21T16:28:49.192Z,6.80
2019-04-21T16:31:20.314Z,6.00
2019-04-21T16:33:52.697Z,7.87
2019-04-21T16:36:23.313Z,6.73
2019-04-21T16:38:53.599Z,7.60
2019-04-21T16:41:24.414Z,5.93
2019-04-21T16:43:55.488Z,6.87
2019-04-21T16:46:25.565Z,6.57
2019-04-21T16:48:55.907Z,6.07
2019-04-21T16:51:26.419Z,7.10
2019-04-21T16:54:03.961Z,7.17
2019-04-21T16:56:39.525Z,15.47
2019-04-21T16:59:29.005Z,10.23
2019-04-21T17:01:58.773Z,9.50
2019-04-21T17:04:28.734Z,8.53
2019-04-21T17:06:58.937Z,8.33
2019-04-21T17:09:28.618Z,7.87
2019-04-21T17:12:02.311Z,7.70
2019-04-21T17:14:48.131Z,8.20
2019-04-21T17:17:25.641Z,9.03
2019-04-21T17:19:38.150Z,7.90
2019-04-21T17:22:03.957Z,8.17
2019-04-21T17:24:34.754Z,8.30
2019-04-21T17:27:05.072Z,8.83
2019-04-21T17:29:34.694Z,9.87
2019-04-21T17:32:07.417Z,9.77
2019-04-21T17:34:37.096Z,10.43
2019-04-21T17:37:06.889Z,10.27
2019-04-21T17:39:36.676Z,9.33
2019-04-21T17:42:18.644Z,10.30
2019-04-21T17:44:37.435Z,10.37
2019-04-21T17:47:21.205Z,10.13
2019-04-21T17:49:39.258Z,9.90
2019-04-21T17:52:19.779Z,10.67
2019-04-21T17:54:54.760Z,9.60
2019-04-21T17:57:43.886Z,8.63
2019-04-21T18:00:13.990Z,10.00
2019-04-21T18:02:51.801Z,9.67
2019-04-21T18:05:26.007Z,8.37
2019-04-21T18:07:47.807Z,9.10
2019-04-21T18:10:19.304Z,7.67
2019-04-21T18:12:45.094Z,7.60
2019-04-21T18:15:18.192Z,8.63
2019-04-21T18:17:34.276Z,7.73
2019-04-21T18:20:04.107Z,8.10
2019-04-21T18:22:53.514Z,7.70
2019-04-21T18:25:38.474Z,8.60
2019-04-21T18:27:56.675Z,8.13
2019-04-21T18:30:52.072Z,9.57
2019-04-21T18:33:29.955Z,9.07
2019-04-21T18:36:14.413Z,9.77
2019-04-21T18:39:09.854Z,10.00
2019-04-21T18:41:30.550Z,9.13
2019-04-21T18:44:34.605Z,9.57
2019-04-21T18:47:03.620Z,9.20
2019-04-21T18:49:24.632Z,10.80
2019-04-21T18:52:03.605Z,10.30
2019-04-21T18:54:45.840Z,10.70
2019-04-21T18:57:08.075Z,10.93
2019-04-21T18:59:37.283Z,11.57
2019-04-21T19:02:07.946Z,11.87
2019-04-21T19:04:37.076Z,14.60
2019-04-21T19:07:20.036Z,11.23
2019-04-21T19:12:49.193Z,13.57
2019-04-21T19:14:55.006Z,14.20
2019-04-21T19:17:58.081Z,13.27
2019-04-21T19:20:07.140Z,17.17
2019-04-21T19:22:34.119Z,13.10
2019-04-21T19:25:05.102Z,13.63
2019-04-21T19:27:32.174Z,16.63
2019-04-21T19:32:33.593Z,11.07
2019-04-21T19:34:55.786Z,10.67
2019-04-21T19:37:26.162Z,12.90
2019-04-21T19:40:05.717Z,11.47
2019-04-21T19:42:36.689Z,12.07
2019-04-21T19:45:10.768Z,12.77
2019-04-21T19:47:45.093Z,13.87
2019-04-21T19:50:15.853Z,14.07
2019-04-21T19:52:40.006Z,13.13
2019-04-21T19:55:00.560Z,14.17
2019-04-21T19:57:31.307Z,12.67
2019-04-21T20:00:04.334Z,14.70
2019-04-21T20:02:32.309Z,12.53
2019-04-21T20:05:07.037Z,14.23
2019-04-21T20:07:49.363Z,12.97
2019-04-21T20:10:26.842Z,13.03
2019-04-21T20:12:55.601Z,12.33
2019-04-21T20:15:37.346Z,9.60
2019-04-21T20:17:55.893Z,8.27
2019-04-21T20:20:13.283Z,8.73
2019-04-21T20:22:46.798Z,7.90
2019-04-21T20:25:18.108Z,7.80
2019-04-21T20:27:58.272Z,9.00
2019-04-21T20:30:41.420Z,10.40
2019-04-21T20:33:20.250Z,11.27
2019-04-21T20:35:46.819Z,11.80
2019-04-21T20:38:06.226Z,10.70
2019-04-21T20:40:36.320Z,9.80
2019-04-21T20:43:19.294Z,9.50
2019-04-21T20:45:49.438Z,9.87
2019-04-21T20:48:07.225Z,9.17
2019-04-21T20:50:41.957Z,10.00
2019-04-21T20:53:14.661Z,10.10
2019-04-21T20:55:47.216Z,10.03
2019-04-21T20:58:15.494Z,10.43
2019-04-21T21:01:06.344Z,11.03
2019-04-21T21:03:24.621Z,12.20
2019-04-21T21:05:49.698Z,12.63
2019-04-21T21:08:32.665Z,12.63
2019-04-21T21:10:53.317Z,12.50
2019-04-21T21:13:32.222Z,13.83
2019-04-21T21:16:10.526Z,12.67
2019-04-21T21:18:52.013Z,11.97
2019-04-21T21:21:08.914Z,16.37
2019-04-21T21:23:40.189Z,13.83
2019-04-21T21:26:12.322Z,17.30
2019-04-21T21:28:32.582Z,19.20
2019-04-21T21:31:07.351Z,16.90
2019-04-21T21:33:49.024Z,15.20
2019-04-21T21:36:10.711Z,16.70
2019-04-21T21:38:42.994Z,15.10
2019-04-21T21:41:05.189Z,16.60
2019-04-21T21:43:27.534Z,20.03
2019-04-21T21:45:59.884Z,18.00
2019-04-21T21:48:40.479Z,19.27
2019-04-21T21:51:05.966Z,18.00
2019-04-21T21:53:34.116Z,16.93
2019-04-21T21:56:02.733Z,15.83
2019-04-21T21:58:38.162Z,17.00
2019-04-21T22:01:06.198Z,14.80
2019-04-21T22:03:40.905Z,15.77
2019-04-21T22:06:10.795Z,16.27
2019-04-21T22:08:38.610Z,15.27
2019-04-21T22:11:08.943Z,14.23
2019-04-21T22:13:47.518Z,13.53
2019-04-21T22:16:14.011Z,13.63
2019-04-21T22:19:04.727Z,14.40
2019-04-21T22:21:34.659Z,14.57
2019-04-21T22:23:54.879Z,14.80
2019-04-21T22:26:15.481Z,15.37
2019-04-21T22:28:45.596Z,16.80
2019-04-21T22:31:21.193Z,16.37
2019-04-21T22:33:50.312Z,15.37
2019-04-21T22:36:32.973Z,15.30
2019-04-21T22:39:11.837Z,14.40
2019-04-21T22:41:30.326Z,15.30
2019-04-21T22:43:55.224Z,15.90
2019-04-21T22:46:24.412Z,15.23
2019-04-21T22:48:59.762Z,15.47
2019-04-21T22:51:35.444Z,15.53
2019-04-21T22:53:59.436Z,15.13
2019-04-21T22:56:32.059Z,14.40
2019-04-21T22:58:58.986Z,15.03
2019-04-21T23:01:34.985Z,14.17
2019-04-21T23:04:02.788Z,13.93
2019-04-21T23:06:34.371Z,13.97
2019-04-21T23:09:02.249Z,13.90
2019-04-21T23:11:37.506Z,15.07
2019-04-21T23:14:06.624Z,13.33
2019-04-21T23:16:37.820Z,15.43
2019-04-21T23:19:21.222Z,14.20
2019-04-21T23:21:58.061Z,15.43
2019-04-21T23:24:31.786Z,14.63
2019-04-21T23:26:51.365Z,14.50
2019-04-21T23:29:39.555Z,14.13
2019-04-21T23:31:59.246Z,13.90
2019-04-21T23:34:19.580Z,14.83
2019-04-21T23:36:53.090Z,13.83
2019-04-21T23:39:22.762Z,13.97
2019-04-21T23:41:51.063Z,14.50
2019-04-21T23:44:20.304Z,15.30
2019-04-21T23:46:54.718Z,14.97
2019-04-21T23:49:34.337Z,13.83
2019-04-21T23:51:59.344Z,14.23
2019-04-21T23:54:23.142Z,15.73
2019-04-21T23:56:53.880Z,14.90
2019-04-21T23:59:24.821Z,13.80
